createdAt,value
2023-05-24T00:00:31.703Z,95701.75
2023-05-24T00:03:00.321Z,95696.22
2023-05-24T00:05:31.082Z,95699.69
2023-05-24T00:07:59.160Z,95698.06
2023-05-24T00:10:27.002Z,95693.34
2023-05-24T00:12:54.865Z,95691.50
2023-05-24T00:15:22.546Z,95693.13
2023-05-24T00:17:51.966Z,95693.53
2023-05-24T00:20:20.704Z,95682.09
2023-05-24T00:22:49.466Z,95686.59
2023-05-24T00:25:17.188Z,95682.09
2023-05-24T00:27:45.419Z,95681.06
2023-05-24T00:30:13.770Z,95680.03
2023-05-24T00:32:42.255Z,95677.34
2023-05-24T00:35:11.456Z,95675.28
2023-05-24T00:37:40.195Z,95679.59
2023-05-24T00:40:09.982Z,95676.91
2023-05-24T00:42:38.207Z,95674.25
2023-05-24T00:45:07.606Z,95670.56
2023-05-24T00:47:37.286Z,95669.16
2023-05-24T00:50:05.902Z,95677.97
2023-05-24T00:52:36.554Z,95681.66
2023-05-24T00:55:04.797Z,95681.06
2023-05-24T00:57:32.509Z,95684.34
2023-05-24T01:00:01.671Z,95686.63
2023-05-24T01:02:29.475Z,95680.88
2023-05-24T01:04:57.716Z,95672.69
2023-05-24T01:07:33.672Z,95678.84
2023-05-24T01:10:14.803Z,95681.28
2023-05-24T01:12:54.523Z,95666.72
2023-05-24T01:15:26.425Z,95681.28
2023-05-24T01:18:02.663Z,95676.75
2023-05-24T01:20:33.306Z,95675.13
2023-05-24T01:23:19.860Z,95668.19
2023-05-24T01:26:04.391Z,95670.22
2023-05-24T01:28:35.802Z,95677.16
2023-05-24T01:31:03.784Z,95682.50
2023-05-24T01:33:32.103Z,95678.84
2023-05-24T01:35:59.776Z,95676.75
2023-05-24T01:38:27.477Z,95678.84
2023-05-24T01:41:02.246Z,95681.69
2023-05-24T01:43:39.157Z,95681.31
2023-05-24T01:46:14.756Z,95680.50
2023-05-24T01:48:55.710Z,95679.47
2023-05-24T01:51:26.023Z,95685.22
2023-05-24T01:53:56.076Z,95679.88
2023-05-24T01:56:23.910Z,95680.09
2023-05-24T01:59:00.147Z,95676.63
2023-05-24T02:01:28.516Z,95684.81
2023-05-24T02:03:56.683Z,95675.19
2023-05-24T02:06:24.378Z,95679.31
2023-05-24T02:08:52.663Z,95684.03
2023-05-24T02:11:20.913Z,95684.63
2023-05-24T02:13:48.578Z,95682.38
2023-05-24T02:16:18.310Z,95681.38
2023-05-24T02:18:46.865Z,95683.84
2023-05-24T02:21:14.883Z,95684.47
2023-05-24T02:23:43.065Z,95690.44
2023-05-24T02:26:13.929Z,95687.34
2023-05-24T02:28:41.824Z,95678.41
2023-05-24T02:31:09.528Z,95680.38
2023-05-24T02:33:38.702Z,95678.75
2023-05-24T02:36:06.740Z,95682.88
2023-05-24T02:38:34.394Z,95676.75
2023-05-24T02:41:02.298Z,95679.81
2023-05-24T02:43:29.985Z,95678.78
2023-05-24T02:45:57.825Z,95676.31
2023-05-24T02:48:25.467Z,95678.16
2023-05-24T02:50:54.583Z,95680.81
2023-05-24T02:53:22.518Z,95667.34
2023-05-24T02:55:51.156Z,95661.25
2023-05-24T02:58:19.144Z,95663.06
2023-05-24T03:00:49.574Z,95659.19
2023-05-24T03:03:19.731Z,95662.06
2023-05-24T03:05:47.796Z,95660.84
2023-05-24T03:08:16.901Z,95656.97
2023-05-24T03:10:44.771Z,95657.38
2023-05-24T03:13:13.936Z,95653.09
2023-05-24T03:15:42.874Z,95654.31
2023-05-24T03:18:10.879Z,95654.94
2023-05-24T03:20:42.797Z,95662.50
2023-05-24T03:23:11.881Z,95664.53
2023-05-24T03:25:40.960Z,95660.03
2023-05-24T03:28:09.098Z,95665.34
2023-05-24T03:30:36.801Z,95668.59
2023-05-24T03:33:04.690Z,95661.66
2023-05-24T03:35:33.438Z,95661.66
2023-05-24T03:38:01.271Z,95665.94
2023-05-24T03:40:33.284Z,95666.97
2023-05-24T03:43:18.463Z,95671.47
2023-05-24T03:45:50.468Z,95674.31
2023-05-24T03:48:20.795Z,95675.72
2023-05-24T03:50:48.928Z,95682.47
2023-05-24T03:53:16.694Z,95684.53
2023-05-24T03:55:45.108Z,95683.72
2023-05-24T03:58:13.784Z,95692.88
2023-05-24T04:00:43.256Z,95692.28
2023-05-24T04:03:12.223Z,95693.50
2023-05-24T04:05:40.720Z,95692.28
2023-05-24T04:08:08.578Z,95696.94
2023-05-24T04:10:38.891Z,95703.69
2023-05-24T04:13:07.102Z,95709.38
2023-05-24T04:15:37.937Z,95702.44
2023-05-24T04:18:07.474Z,95709.97
2023-05-24T04:20:36.195Z,95705.31
2023-05-24T04:23:03.876Z,95705.31
2023-05-24T04:25:33.510Z,95704.50
2023-05-24T04:28:02.442Z,95702.44
2023-05-24T04:30:31.812Z,95704.06
2023-05-24T04:33:00.080Z,95703.69
2023-05-24T04:35:30.952Z,95708.59
2023-05-24T04:37:59.710Z,95697.97
2023-05-24T04:40:27.388Z,95712.22
2023-05-24T04:42:55.248Z,95714.09
2023-05-24T04:45:23.145Z,95717.97
2023-05-24T04:47:51.140Z,95721.69
2023-05-24T04:50:19.298Z,95713.91
2023-05-24T04:52:48.605Z,95714.72
2023-05-24T04:55:16.354Z,95706.97
2023-05-24T04:57:44.514Z,95709.19
2023-05-24T05:00:13.436Z,95703.88
2023-05-24T05:02:41.302Z,95710.66
2023-05-24T05:05:09.279Z,95709.41
2023-05-24T05:07:38.839Z,95711.06
2023-05-24T05:10:09.464Z,95706.75
2023-05-24T05:12:37.235Z,95703.72
2023-05-24T05:15:05.544Z,95702.09
2023-05-24T05:17:33.260Z,95701.06
2023-05-24T05:20:00.941Z,95703.88
2023-05-24T05:22:30.686Z,95710.66
2023-05-24T05:24:59.156Z,95704.28
2023-05-24T05:27:28.274Z,95703.31
2023-05-24T05:29:55.907Z,95702.09
2023-05-24T05:32:23.695Z,95706.53
2023-05-24T05:34:51.523Z,95713.09
2023-05-24T05:37:19.163Z,95705.72
2023-05-24T05:39:46.795Z,95708.38
2023-05-24T05:42:14.582Z,95698.38
2023-05-24T05:44:43.788Z,95707.78
2023-05-24T05:47:11.431Z,95700.84
2023-05-24T05:49:39.191Z,95691.34
2023-05-24T05:52:07.020Z,95700.56
2023-05-24T05:54:35.030Z,95684.75
2023-05-24T05:57:02.680Z,95679.38
2023-05-24T05:59:30.612Z,95687.69
2023-05-24T06:01:59.590Z,95685.44
2023-05-24T06:04:27.542Z,95691.16
2023-05-24T06:06:55.220Z,95685.63
2023-05-24T06:09:23.251Z,95696.09
2023-05-24T06:11:51.339Z,95681.75
2023-05-24T06:14:20.362Z,95691.69
2023-05-24T06:16:48.431Z,95687.97
2023-05-24T06:19:18.279Z,95690.63
2023-05-24T06:21:48.034Z,95694.06
2023-05-24T06:24:20.571Z,95694.06
2023-05-24T06:26:48.547Z,95692.84
2023-05-24T06:29:16.315Z,95691.03
2023-05-24T06:31:44.177Z,95712.28
2023-05-24T06:34:12.091Z,95700.22
2023-05-24T06:36:42.961Z,95705.72
2023-05-24T06:39:11.367Z,95708.28
2023-05-24T06:41:39.465Z,95700.41
2023-05-24T06:44:07.468Z,95712.06
2023-05-24T06:46:35.801Z,95718.50
2023-05-24T06:49:04.265Z,95715.03
2023-05-24T06:51:33.734Z,95718.78
2023-05-24T06:54:02.874Z,95719.13
2023-05-24T06:56:30.760Z,95728.50
2023-05-24T06:58:58.479Z,95720.56
2023-05-24T07:01:26.349Z,95728.25
2023-05-24T07:03:54.074Z,95724.88
2023-05-24T07:06:23.599Z,95732.19
2023-05-24T07:08:51.238Z,95731.47
2023-05-24T07:11:20.825Z,95731.75
2023-05-24T07:13:48.471Z,95736.69
2023-05-24T07:16:16.443Z,95743.06
2023-05-24T07:18:44.100Z,95734.44
2023-05-24T07:21:11.887Z,95744.25
2023-05-24T07:23:39.543Z,95749.03
2023-05-24T07:26:07.600Z,95744.97
2023-05-24T07:28:38.028Z,95746.94
2023-05-24T07:31:08.160Z,95746.03
2023-05-24T07:33:37.709Z,95741.72
2023-05-24T07:36:07.040Z,95735.84
2023-05-24T07:38:35.338Z,95736.88
2023-05-24T07:41:04.710Z,95736.66
2023-05-24T07:43:32.556Z,95736.63
2023-05-24T07:46:01.621Z,95739.47
2023-05-24T07:48:29.532Z,95743.72
2023-05-24T07:50:57.184Z,95743.06
2023-05-24T07:53:24.937Z,95744.56
2023-05-24T07:55:52.558Z,95739.56
2023-05-24T07:58:20.239Z,95741.59
2023-05-24T08:00:47.911Z,95743.53
2023-05-24T08:03:17.948Z,95743.88
2023-05-24T08:05:45.862Z,95733.25
2023-05-24T08:08:14.095Z,95735.75
2023-05-24T08:10:41.848Z,95736.50
2023-05-24T08:13:10.119Z,95735.09
2023-05-24T08:15:37.871Z,95732.22
2023-05-24T08:18:05.849Z,95738.19
2023-05-24T08:20:36.643Z,95738.66
2023-05-24T08:23:04.356Z,95735.53
2023-05-24T08:25:32.922Z,95733.78
2023-05-24T08:28:01.049Z,95739.47
2023-05-24T08:30:29.188Z,95739.22
2023-05-24T08:32:58.076Z,95742.75
2023-05-24T08:35:26.018Z,95743.00
2023-05-24T08:37:55.176Z,95738.31
2023-05-24T08:40:24.154Z,95733.91
2023-05-24T08:42:53.451Z,95743.78
2023-05-24T08:45:23.263Z,95744.47
2023-05-24T08:47:51.842Z,95744.38
2023-05-24T08:50:20.385Z,95753.53
2023-05-24T08:52:48.890Z,95754.44
2023-05-24T08:55:18.483Z,95760.94
2023-05-24T08:57:46.849Z,95763.22
2023-05-24T09:00:15.731Z,95764.97
2023-05-24T09:02:47.026Z,95752.03
2023-05-24T09:05:16.883Z,95759.81
2023-05-24T09:07:46.427Z,95755.81
2023-05-24T09:10:14.164Z,95767.66
2023-05-24T09:12:48.648Z,95767.00
2023-05-24T09:15:16.270Z,95776.53
2023-05-24T09:17:44.667Z,95781.41
2023-05-24T09:20:13.833Z,95789.84
2023-05-24T09:22:44.098Z,95781.34
2023-05-24T09:25:15.046Z,95776.56
2023-05-24T09:27:52.046Z,95779.72
2023-05-24T09:30:21.027Z,95785.88
2023-05-24T09:32:58.867Z,95785.06
2023-05-24T09:35:28.083Z,95792.50
2023-05-24T09:37:57.591Z,95791.34
2023-05-24T09:40:25.775Z,95786.81
2023-05-24T09:43:05.932Z,95789.59
2023-05-24T09:45:33.833Z,95774.59
2023-05-24T09:48:04.918Z,95782.28
2023-05-24T09:50:33.067Z,95774.22
2023-05-24T09:53:00.994Z,95782.59
2023-05-24T09:55:28.777Z,95774.78
2023-05-24T09:58:04.004Z,95780.09
2023-05-24T10:00:36.368Z,95782.41
2023-05-24T10:03:06.726Z,95782.00
2023-05-24T10:05:35.888Z,95784.81
2023-05-24T10:08:05.649Z,95780.25
2023-05-24T10:10:35.090Z,95786.25
2023-05-24T10:13:03.815Z,95786.75
2023-05-24T10:15:33.116Z,95791.97
2023-05-24T10:18:01.899Z,95793.59
2023-05-24T10:20:30.081Z,95797.91
2023-05-24T10:23:01.553Z,95795.59
2023-05-24T10:25:30.664Z,95789.53
2023-05-24T10:28:03.270Z,95786.94
2023-05-24T10:30:38.676Z,95784.47
2023-05-24T10:33:08.408Z,95794.81
2023-05-24T10:35:38.231Z,95787.50
2023-05-24T10:38:07.933Z,95791.78
2023-05-24T10:40:36.041Z,95801.00
2023-05-24T10:43:06.353Z,95800.06
2023-05-24T10:45:38.284Z,95800.66
2023-05-24T10:48:33.234Z,95799.03
2023-05-24T10:51:02.255Z,95800.53
2023-05-24T10:53:30.221Z,95787.16
2023-05-24T10:55:59.728Z,95797.41
2023-05-24T10:58:47.100Z,95792.41
2023-05-24T11:01:26.994Z,95793.91
2023-05-24T11:03:55.239Z,95790.06
2023-05-24T11:06:47.290Z,95790.59
2023-05-24T11:09:16.017Z,95787.59
2023-05-24T11:11:48.814Z,95788.22
2023-05-24T11:14:20.664Z,95782.50
2023-05-24T11:16:51.321Z,95790.97
2023-05-24T11:19:21.010Z,95779.13
2023-05-24T11:21:50.414Z,95776.16
2023-05-24T11:24:19.062Z,95780.34
2023-05-24T11:26:47.536Z,95773.78
2023-05-24T11:29:17.734Z,95776.00
2023-05-24T11:31:50.799Z,95775.59
2023-05-24T11:34:18.530Z,95773.03
2023-05-24T11:36:47.526Z,95777.16
2023-05-24T11:39:16.026Z,95778.56
2023-05-24T11:41:44.020Z,95778.66
2023-05-24T11:44:13.014Z,95771.06
2023-05-24T11:46:41.459Z,95772.00
2023-05-24T11:49:14.299Z,95771.47
2023-05-24T11:51:42.396Z,95767.63
2023-05-24T11:54:11.657Z,95767.94
2023-05-24T11:56:40.051Z,95768.56
2023-05-24T11:59:14.460Z,95759.09
2023-05-24T12:01:42.477Z,95768.94
2023-05-24T12:04:12.946Z,95758.84
2023-05-24T12:06:42.265Z,95758.22
2023-05-24T12:09:13.401Z,95767.25
2023-05-24T12:11:43.550Z,95760.00
2023-05-24T12:14:15.344Z,95751.56
2023-05-24T12:16:43.723Z,95754.81
2023-05-24T12:19:31.502Z,95755.47
2023-05-24T12:22:02.035Z,95752.44
2023-05-24T12:24:32.542Z,95747.94
2023-05-24T12:27:03.116Z,95745.69
2023-05-24T12:29:35.095Z,95740.06
2023-05-24T12:32:03.390Z,95751.50
2023-05-24T12:34:33.179Z,95743.56
2023-05-24T12:37:01.209Z,95743.53
2023-05-24T12:39:31.762Z,95753.16
2023-05-24T12:42:01.638Z,95749.16
2023-05-24T12:44:31.308Z,95751.75
2023-05-24T12:47:00.054Z,95749.03
2023-05-24T12:49:28.173Z,95752.66
2023-05-24T12:51:57.821Z,95753.75
2023-05-24T12:54:26.954Z,95756.28
2023-05-24T12:56:57.348Z,95750.94
2023-05-24T12:59:27.331Z,95746.53
2023-05-24T13:01:55.174Z,95741.81
2023-05-24T13:04:26.316Z,95755.69
2023-05-24T13:06:54.393Z,95747.84
2023-05-24T13:09:24.284Z,95748.53
2023-05-24T13:11:52.679Z,95749.19
2023-05-24T13:14:20.843Z,95746.75
2023-05-24T13:16:48.782Z,95743.19
2023-05-24T13:19:17.070Z,95737.56
2023-05-24T13:21:45.039Z,95735.16
2023-05-24T13:24:14.794Z,95736.31
2023-05-24T13:26:43.865Z,95736.31
2023-05-24T13:31:43.012Z,95735.03
2023-05-24T13:34:11.454Z,95740.63
2023-05-24T13:36:39.927Z,95734.94
2023-05-24T13:41:41.279Z,95741.34
2023-05-24T13:44:10.929Z,95733.16
2023-05-24T13:46:39.399Z,95742.75
2023-05-24T13:49:07.302Z,95741.94
2023-05-24T13:51:34.971Z,95743.88
2023-05-24T13:54:03.106Z,95737.34
2023-05-24T13:56:33.286Z,95742.59
2023-05-24T13:59:01.208Z,95734.44
2023-05-24T14:01:30.533Z,95732.31
2023-05-24T14:03:58.501Z,95736.25
2023-05-24T14:06:26.525Z,95730.34
2023-05-24T14:08:54.186Z,95720.13
2023-05-24T14:11:22.599Z,95734.28
2023-05-24T14:16:21.365Z,95724.53
2023-05-24T14:18:51.646Z,95721.84
2023-05-24T14:21:19.498Z,95725.72
2023-05-24T14:23:47.223Z,95715.66
2023-05-24T14:26:15.054Z,95724.34
2023-05-24T14:28:42.713Z,95721.66
2023-05-24T14:31:10.536Z,95719.75
2023-05-24T14:33:38.892Z,95719.47
2023-05-24T14:36:08.704Z,95724.47
2023-05-24T14:38:36.610Z,95724.63
2023-05-24T14:41:04.288Z,95721.44
2023-05-24T14:43:32.034Z,95724.03
2023-05-24T14:45:59.731Z,95720.22
2023-05-24T14:48:27.516Z,95716.59
2023-05-24T14:50:55.183Z,95717.56
2023-05-24T14:53:24.261Z,95709.72
2023-05-24T14:55:54.248Z,95707.94
2023-05-24T14:58:22.136Z,95712.50
2023-05-24T15:00:50.051Z,95699.19
2023-05-24T15:03:18.705Z,95704.31
2023-05-24T15:05:46.554Z,95697.91
2023-05-24T15:08:14.178Z,95701.31
2023-05-24T15:10:45.177Z,95707.78
2023-05-24T15:13:13.485Z,95693.19
2023-05-24T15:15:41.989Z,95700.13
2023-05-24T15:18:10.005Z,95701.06
2023-05-24T15:20:38.101Z,95695.47
2023-05-24T15:23:06.345Z,95697.41
2023-05-24T15:25:33.985Z,95701.31
2023-05-24T15:28:03.110Z,95696.38
2023-05-24T15:30:32.049Z,95703.03
2023-05-24T15:32:59.861Z,95698.63
2023-05-24T15:35:27.638Z,95696.59
2023-05-24T15:37:55.304Z,95692.78
2023-05-24T15:40:24.486Z,95697.69
2023-05-24T15:42:53.452Z,95707.59
2023-05-24T15:45:22.441Z,95695.50
2023-05-24T15:47:50.175Z,95705.97
2023-05-24T15:50:23.655Z,95701.75
2023-05-24T15:52:56.658Z,95714.84
2023-05-24T15:55:24.308Z,95716.00
2023-05-24T15:57:51.986Z,95718.34
2023-05-24T16:00:20.317Z,95707.53
2023-05-24T16:02:49.497Z,95720.91
2023-05-24T16:05:19.790Z,95713.69
2023-05-24T16:07:48.642Z,95709.84
2023-05-24T16:10:16.376Z,95707.53
2023-05-24T16:12:44.147Z,95708.81
2023-05-24T16:15:12.520Z,95717.78
2023-05-24T16:17:40.245Z,95720.19
2023-05-24T16:20:10.171Z,95717.13
2023-05-24T16:22:39.689Z,95714.34
2023-05-24T16:25:08.037Z,95711.31
2023-05-24T16:27:36.014Z,95715.06
2023-05-24T16:30:03.677Z,95721.03
2023-05-24T16:32:31.561Z,95718.88
2023-05-24T16:34:59.287Z,95718.34
2023-05-24T16:37:28.484Z,95712.97
2023-05-24T16:39:56.684Z,95710.63
2023-05-24T16:42:24.471Z,95716.22
2023-05-24T16:44:52.179Z,95719.75
2023-05-24T16:47:20.039Z,95729.03
2023-05-24T16:49:47.759Z,95727.38
2023-05-24T16:52:15.679Z,95719.56
2023-05-24T16:54:44.711Z,95726.88
2023-05-24T16:57:12.582Z,95732.41
2023-05-24T16:59:42.221Z,95734.22
2023-05-24T17:02:09.864Z,95738.25
2023-05-24T17:04:37.694Z,95731.03
2023-05-24T17:07:05.625Z,95731.06
2023-05-24T17:09:33.409Z,95732.81
2023-05-24T17:12:03.165Z,95740.09
2023-05-24T17:14:31.479Z,95737.66
2023-05-24T17:16:59.131Z,95736.84
2023-05-24T17:19:27.053Z,95742.97
2023-05-24T17:21:55.120Z,95739.28
2023-05-24T17:24:25.306Z,95751.22
2023-05-24T17:26:53.576Z,95743.28
2023-05-24T17:29:23.628Z,95756.84
2023-05-24T17:31:51.666Z,95753.44
2023-05-24T17:34:20.229Z,95747.53
2023-05-24T17:36:48.304Z,95752.69
2023-05-24T17:39:17.425Z,95750.78
2023-05-24T17:41:45.401Z,95755.94
2023-05-24T17:44:13.560Z,95751.53
2023-05-24T17:46:43.078Z,95746.47
2023-05-24T17:49:12.613Z,95754.91
2023-05-24T17:51:40.611Z,95763.16
2023-05-24T17:54:08.664Z,95759.22
2023-05-24T17:56:36.571Z,95763.16
2023-05-24T17:59:04.566Z,95766.00
2023-05-24T18:01:32.774Z,95761.78
2023-05-24T18:04:02.721Z,95764.59
2023-05-24T18:06:30.980Z,95762.16
2023-05-24T18:08:59.136Z,95768.38
2023-05-24T18:11:28.502Z,95768.38
2023-05-24T18:13:57.156Z,95770.59
2023-05-24T18:16:25.376Z,95775.56
2023-05-24T18:18:54.453Z,95779.50
2023-05-24T18:21:24.382Z,95787.09
2023-05-24T18:23:52.393Z,95785.72
2023-05-24T18:26:20.427Z,95783.31
2023-05-24T18:28:48.267Z,95788.41
2023-05-24T18:31:16.170Z,95790.25
2023-05-24T18:33:44.352Z,95790.72
2023-05-24T18:36:12.756Z,95789.50
2023-05-24T18:38:42.649Z,95799.13
2023-05-24T18:41:11.916Z,95789.91
2023-05-24T18:43:42.994Z,95788.72
2023-05-24T18:46:13.409Z,95794.50
2023-05-24T18:48:41.688Z,95801.50
2023-05-24T18:51:09.658Z,95788.03
2023-05-24T18:53:37.491Z,95788.63
2023-05-24T18:56:07.316Z,95791.28
2023-05-24T18:58:35.181Z,95792.53
2023-05-24T19:01:03.242Z,95788.47
2023-05-24T19:03:31.322Z,95790.53
2023-05-24T19:05:59.330Z,95789.72
2023-05-24T19:08:27.273Z,95790.97
2023-05-24T19:10:55.408Z,95789.53
2023-05-24T19:13:25.890Z,95787.69
2023-05-24T19:15:53.920Z,95785.25
2023-05-24T19:18:21.746Z,95787.31
2023-05-24T19:20:49.825Z,95788.78
2023-05-24T19:23:17.787Z,95794.31
2023-05-24T19:25:50.070Z,95791.50
2023-05-24T19:28:18.233Z,95793.94
2023-05-24T19:30:47.883Z,95801.69
2023-05-24T19:33:15.710Z,95800.06
2023-05-24T19:35:46.576Z,95811.56
2023-05-24T19:38:17.873Z,95810.91
2023-05-24T19:40:51.700Z,95816.66
2023-05-24T19:43:24.587Z,95814.00
2023-05-24T19:46:04.336Z,95814.22
2023-05-24T19:48:32.407Z,95814.00
2023-05-24T19:51:00.321Z,95815.03
2023-05-24T19:53:29.445Z,95817.25
2023-05-24T19:56:03.421Z,95811.16
2023-05-24T19:58:31.461Z,95825.81
2023-05-24T20:01:02.406Z,95813.97
2023-05-24T20:03:35.108Z,95822.97
2023-05-24T20:06:05.209Z,95825.41
2023-05-24T20:08:33.681Z,95817.03
2023-05-24T20:11:12.349Z,95823.38
2023-05-24T20:13:47.276Z,95820.06
2023-05-24T20:16:19.290Z,95820.91
2023-05-24T20:18:47.567Z,95821.31
2023-05-24T20:21:22.630Z,95828.66
2023-05-24T20:23:57.821Z,95818.47
2023-05-24T20:26:26.925Z,95814.75
2023-05-24T20:28:55.043Z,95812.31
2023-05-24T20:31:24.513Z,95809.88
2023-05-24T20:33:52.975Z,95817.41
2023-05-24T20:36:20.925Z,95812.72
2023-05-24T20:38:50.220Z,95817.59
2023-05-24T20:41:18.384Z,95816.38
2023-05-24T20:43:46.666Z,95813.09
2023-05-24T20:46:14.783Z,95810.22
2023-05-24T20:48:44.984Z,95803.28
2023-05-24T20:51:12.853Z,95811.03
2023-05-24T20:53:42.953Z,95808.59
2023-05-24T20:56:21.702Z,95813.47
2023-05-24T20:58:52.712Z,95810.63
2023-05-24T21:01:20.864Z,95812.25
2023-05-24T21:03:49.938Z,95811.44
2023-05-24T21:06:20.758Z,95804.50
2023-05-24T21:08:49.107Z,95808.34
2023-05-24T21:11:16.973Z,95814.69
2023-05-24T21:13:44.630Z,95821.22
2023-05-24T21:16:12.281Z,95815.50
2023-05-24T21:18:39.936Z,95812.41
2023-05-24T21:21:09.444Z,95805.69
2023-05-24T21:23:37.078Z,95810.16
2023-05-24T21:26:05.056Z,95812.63
2023-05-24T21:28:32.869Z,95804.03
2023-05-24T21:31:00.563Z,95814.25
2023-05-24T21:33:28.396Z,95815.44
2023-05-24T21:35:56.091Z,95809.53
2023-05-24T21:38:25.491Z,95817.47
2023-05-24T21:40:53.527Z,95814.81
2023-05-24T21:43:21.595Z,95818.28
2023-05-24T21:45:49.231Z,95815.84
2023-05-24T21:48:16.936Z,95814.59
2023-05-24T21:50:44.744Z,95813.97
2023-05-24T21:53:12.609Z,95823.53
2023-05-24T21:55:41.690Z,95815.97
2023-05-24T21:58:09.820Z,95813.31
2023-05-24T22:00:37.444Z,95813.69
2023-05-24T22:03:05.532Z,95820.63
2023-05-24T22:05:33.281Z,95821.03
2023-05-24T22:08:01.068Z,95827.31
2023-05-24T22:10:28.723Z,95824.59
2023-05-24T22:12:57.886Z,95828.66
2023-05-24T22:15:26.444Z,95829.66
2023-05-24T22:17:58.236Z,95830.06
2023-05-24T22:20:27.715Z,95832.06
2023-05-24T22:22:55.565Z,95837.16
2023-05-24T22:25:23.390Z,95841.44
2023-05-24T22:27:51.757Z,95845.09
2023-05-24T22:30:21.306Z,95849.38
2023-05-24T22:32:49.399Z,95848.13
2023-05-24T22:35:20.341Z,95837.97
2023-05-24T22:37:48.154Z,95843.69
2023-05-24T22:40:16.515Z,95843.06
2023-05-24T22:42:46.624Z,95843.84
2023-05-24T22:45:18.640Z,95837.53
2023-05-24T22:47:49.217Z,95837.53
2023-05-24T22:50:17.567Z,95833.88
2023-05-24T22:52:49.024Z,95831.41
2023-05-24T22:55:19.631Z,95834.69
2023-05-24T22:57:47.674Z,95833.88
2023-05-24T23:00:16.312Z,95829.41
2023-05-24T23:02:47.988Z,95835.53
2023-05-24T23:05:16.266Z,95818.97
2023-05-24T23:07:44.228Z,95828.75
2023-05-24T23:10:12.452Z,95821.63
2023-05-24T23:12:43.093Z,95826.31
2023-05-24T23:15:16.945Z,95825.69
2023-05-24T23:17:45.081Z,95821.22
2023-05-24T23:20:18.116Z,95807.53
2023-05-24T23:22:47.286Z,95811.56
2023-05-24T23:25:15.293Z,95804.66
2023-05-24T23:27:43.403Z,95807.06
2023-05-24T23:30:11.726Z,95796.22
2023-05-24T23:32:39.640Z,95803.56
2023-05-24T23:35:07.883Z,95803.56
2023-05-24T23:37:37.403Z,95797.06
2023-05-24T23:40:06.648Z,95805.19
2023-05-24T23:42:34.649Z,95798.25
2023-05-24T23:45:02.738Z,95799.09
2023-05-24T23:47:30.825Z,95809.22
2023-05-24T23:49:58.937Z,95812.88
2023-05-24T23:52:27.095Z,95806.75
2023-05-24T23:54:56.971Z,95806.50
2023-05-24T23:57:25.409Z,95807.50
2023-05-24T23:59:55.619Z,95799.97
